createdAt,value
2022-08-31T00:01:28.472Z,6.80
2022-08-31T00:03:58.381Z,5.27
2022-08-31T00:06:27.710Z,4.97
2022-08-31T00:08:55.673Z,4.40
2022-08-31T00:11:30.263Z,5.00
2022-08-31T00:13:59.587Z,5.03
2022-08-31T00:16:30.174Z,4.20
2022-08-31T00:18:58.574Z,5.83
2022-08-31T00:21:29.114Z,5.63
2022-08-31T00:23:57.318Z,5.80
2022-08-31T00:26:26.193Z,5.30
2022-08-31T00:28:54.555Z,6.03
2022-08-31T00:31:22.912Z,5.97
2022-08-31T00:33:52.651Z,4.23
2022-08-31T00:36:22.702Z,4.90
2022-08-31T00:38:52.439Z,5.97
2022-08-31T00:41:23.997Z,4.77
2022-08-31T00:43:54.274Z,4.50
2022-08-31T00:46:26.395Z,5.47
2022-08-31T00:49:00.490Z,4.90
2022-08-31T00:51:30.242Z,5.37
2022-08-31T00:54:00.513Z,5.20
2022-08-31T00:56:31.259Z,7.00
2022-08-31T00:59:01.066Z,5.83
2022-08-31T01:01:30.722Z,5.70
2022-08-31T01:04:00.265Z,5.80
2022-08-31T01:06:29.002Z,8.53
2022-08-31T01:08:59.689Z,7.90
2022-08-31T01:11:28.175Z,8.17
2022-08-31T01:13:56.765Z,9.10
2022-08-31T01:16:31.135Z,12.43
2022-08-31T01:19:02.676Z,11.07
2022-08-31T01:21:37.041Z,10.53
2022-08-31T01:24:06.960Z,9.70
2022-08-31T01:26:35.580Z,11.27
2022-08-31T01:29:06.835Z,10.90
2022-08-31T01:31:37.851Z,11.63
2022-08-31T01:34:06.528Z,11.20
2022-08-31T01:36:36.669Z,10.83
2022-08-31T01:39:06.977Z,14.80
2022-08-31T01:41:35.199Z,14.37
2022-08-31T01:44:03.734Z,14.47
2022-08-31T01:46:31.905Z,13.90
2022-08-31T01:49:00.737Z,12.47
2022-08-31T01:51:28.814Z,11.00
2022-08-31T01:53:57.016Z,12.97
2022-08-31T01:56:29.699Z,11.93
2022-08-31T01:58:57.944Z,12.20
2022-08-31T02:01:33.660Z,11.87
2022-08-31T02:04:03.350Z,13.80
2022-08-31T02:06:32.615Z,11.67
2022-08-31T02:09:00.730Z,14.60
2022-08-31T02:11:30.155Z,11.43
2022-08-31T02:13:59.026Z,11.73
2022-08-31T02:16:27.249Z,11.83
2022-08-31T02:18:55.265Z,12.73
2022-08-31T02:21:23.988Z,13.60
2022-08-31T02:23:52.062Z,12.97
2022-08-31T02:26:20.394Z,12.87
2022-08-31T02:28:49.793Z,11.50
2022-08-31T02:31:17.948Z,12.17
2022-08-31T02:33:46.133Z,11.60
2022-08-31T02:36:14.088Z,13.00
2022-08-31T02:38:42.278Z,11.17
2022-08-31T02:41:11.575Z,11.07
2022-08-31T02:43:39.707Z,10.80
2022-08-31T02:46:09.112Z,13.80
2022-08-31T02:48:37.375Z,12.77
2022-08-31T02:51:07.658Z,10.90
2022-08-31T02:53:36.773Z,14.40
2022-08-31T02:56:05.828Z,13.73
2022-08-31T02:58:33.941Z,12.40
2022-08-31T03:01:02.045Z,12.47
2022-08-31T03:03:31.500Z,14.03
2022-08-31T03:05:59.513Z,11.20
2022-08-31T03:08:27.542Z,14.60
2022-08-31T03:10:59.139Z,14.10
2022-08-31T03:13:27.208Z,11.47
2022-08-31T03:15:55.287Z,13.27
2022-08-31T03:18:23.535Z,12.30
2022-08-31T03:20:52.902Z,14.17
2022-08-31T03:23:21.099Z,12.13
2022-08-31T03:25:49.229Z,14.50
2022-08-31T03:28:17.471Z,10.33
2022-08-31T03:30:45.713Z,12.10
2022-08-31T03:33:14.532Z,13.13
2022-08-31T03:35:44.692Z,14.00
2022-08-31T03:38:15.857Z,14.73
2022-08-31T03:40:45.132Z,12.90
2022-08-31T03:43:13.710Z,13.00
2022-08-31T03:45:43.021Z,15.20
2022-08-31T03:48:13.111Z,16.83
2022-08-31T03:50:43.107Z,15.43
2022-08-31T03:53:14.004Z,12.43
2022-08-31T03:55:43.534Z,14.10
2022-08-31T03:58:12.751Z,14.53
2022-08-31T04:00:43.362Z,12.47
2022-08-31T04:03:11.595Z,11.93
2022-08-31T04:05:44.440Z,13.00
2022-08-31T04:08:14.770Z,12.80
2022-08-31T04:10:44.048Z,13.40
2022-08-31T04:13:12.394Z,11.80
2022-08-31T04:15:40.766Z,13.20
2022-08-31T04:18:09.023Z,13.60
2022-08-31T04:20:37.768Z,12.40
2022-08-31T04:23:05.968Z,12.40
2022-08-31T04:25:39.792Z,11.77
2022-08-31T04:28:09.112Z,11.40
2022-08-31T04:30:40.210Z,11.30
2022-08-31T04:33:09.200Z,12.57
2022-08-31T04:35:39.881Z,13.00
2022-08-31T04:38:08.311Z,12.03
2022-08-31T04:40:40.775Z,13.90
2022-08-31T04:43:09.035Z,13.93
2022-08-31T04:45:42.258Z,11.90
2022-08-31T04:48:12.570Z,13.00
2022-08-31T04:50:42.947Z,12.90
2022-08-31T04:53:12.083Z,12.23
2022-08-31T04:55:41.911Z,11.83
2022-08-31T04:58:10.069Z,11.80
2022-08-31T05:00:38.306Z,12.37
2022-08-31T05:03:06.341Z,12.27
2022-08-31T05:05:39.042Z,13.07
2022-08-31T05:08:07.121Z,12.67
2022-08-31T05:10:35.228Z,13.40
2022-08-31T05:13:04.751Z,13.00
2022-08-31T05:15:32.820Z,13.00
2022-08-31T05:18:01.312Z,12.40
2022-08-31T05:20:29.392Z,13.17
2022-08-31T05:22:57.510Z,11.73
2022-08-31T05:25:25.601Z,11.80
2022-08-31T05:27:55.406Z,12.37
2022-08-31T05:30:24.782Z,10.60
2022-08-31T05:32:52.918Z,11.83
2022-08-31T05:35:20.957Z,10.20
2022-08-31T05:37:51.558Z,9.70
2022-08-31T05:40:19.794Z,10.63
2022-08-31T05:42:47.841Z,10.40
2022-08-31T05:45:18.124Z,9.73
2022-08-31T05:47:47.466Z,9.90
2022-08-31T05:50:15.483Z,11.90
2022-08-31T05:52:43.862Z,9.73
2022-08-31T05:55:12.538Z,12.20
2022-08-31T05:57:40.681Z,10.10
2022-08-31T06:00:10.691Z,11.10
2022-08-31T06:02:40.130Z,9.77
2022-08-31T06:05:10.421Z,10.70
2022-08-31T06:07:38.539Z,10.83
2022-08-31T06:10:07.132Z,11.07
2022-08-31T06:12:38.985Z,9.93
2022-08-31T06:15:07.950Z,10.10
2022-08-31T06:17:35.983Z,11.03
2022-08-31T06:20:04.721Z,9.33
2022-08-31T06:22:37.207Z,11.10
2022-08-31T06:25:06.087Z,11.50
2022-08-31T06:27:38.638Z,10.77
2022-08-31T06:30:08.266Z,12.33
2022-08-31T06:32:36.698Z,10.73
2022-08-31T06:35:05.064Z,11.80
2022-08-31T06:37:34.365Z,11.43
2022-08-31T06:40:02.931Z,13.70
2022-08-31T06:42:31.012Z,10.80
2022-08-31T06:44:59.046Z,12.00
2022-08-31T06:47:27.068Z,12.10
2022-08-31T06:49:57.202Z,12.23
2022-08-31T06:52:25.232Z,11.40
2022-08-31T06:54:54.576Z,11.73
2022-08-31T06:57:22.668Z,11.90
2022-08-31T06:59:53.671Z,11.00
2022-08-31T07:02:21.984Z,12.50
2022-08-31T07:04:50.008Z,13.87
2022-08-31T07:07:17.995Z,10.87
2022-08-31T07:09:45.989Z,12.60
2022-08-31T07:12:15.318Z,11.33
2022-08-31T07:14:50.418Z,9.73
2022-08-31T07:17:22.860Z,9.70
2022-08-31T07:19:50.858Z,10.67
2022-08-31T07:22:19.081Z,9.70
2022-08-31T07:24:47.157Z,9.47
2022-08-31T07:27:18.283Z,10.40
2022-08-31T07:29:46.568Z,10.40
2022-08-31T07:32:17.365Z,10.07
2022-08-31T07:34:45.547Z,10.27
2022-08-31T07:37:30.973Z,10.17
2022-08-31T07:40:16.441Z,10.93
2022-08-31T07:42:46.867Z,10.53
2022-08-31T07:45:22.647Z,10.40
2022-08-31T07:47:52.106Z,10.83
2022-08-31T07:50:22.061Z,10.30
2022-08-31T07:52:54.106Z,10.40
2022-08-31T07:55:24.092Z,12.47
2022-08-31T07:57:55.104Z,9.40
2022-08-31T08:00:25.686Z,10.33
2022-08-31T08:02:54.275Z,12.00
2022-08-31T08:05:27.521Z,10.90
2022-08-31T08:08:00.166Z,9.80
2022-08-31T08:10:29.994Z,11.23
2022-08-31T08:13:05.446Z,10.87
2022-08-31T08:15:36.185Z,10.00
2022-08-31T08:18:05.416Z,11.90
2022-08-31T08:20:37.561Z,10.97
2022-08-31T08:23:11.496Z,11.00
2022-08-31T08:25:43.169Z,11.53
2022-08-31T08:28:38.123Z,10.60
2022-08-31T08:31:06.210Z,12.63
2022-08-31T08:33:35.822Z,13.13
2022-08-31T08:36:07.943Z,11.30
2022-08-31T08:38:39.005Z,11.10
2022-08-31T08:41:11.807Z,11.00
2022-08-31T08:43:44.198Z,11.83
2022-08-31T08:46:34.403Z,11.20
2022-08-31T08:49:15.051Z,11.53
2022-08-31T08:51:44.705Z,11.47
2022-08-31T08:54:20.392Z,12.47
2022-08-31T08:56:49.434Z,13.07
2022-08-31T08:59:32.318Z,12.60
2022-08-31T09:02:04.971Z,9.83
2022-08-31T09:05:01.657Z,11.87
2022-08-31T09:07:56.292Z,12.00
2022-08-31T09:10:31.218Z,11.40
2022-08-31T09:13:14.377Z,15.33
2022-08-31T09:16:00.930Z,11.43
2022-08-31T09:18:42.168Z,10.70
2022-08-31T09:21:21.516Z,10.23
2022-08-31T09:23:59.573Z,11.73
2022-08-31T09:26:27.934Z,10.00
2022-08-31T09:28:57.174Z,11.63
2022-08-31T09:31:37.567Z,10.30
2022-08-31T09:34:11.048Z,9.77
2022-08-31T09:36:41.782Z,10.63
2022-08-31T09:39:22.447Z,10.37
2022-08-31T09:41:52.878Z,10.70
2022-08-31T09:44:26.180Z,9.93
2022-08-31T09:46:59.369Z,10.23
2022-08-31T09:49:29.595Z,9.87
2022-08-31T09:52:19.792Z,9.80
2022-08-31T09:55:17.495Z,9.40
2022-08-31T09:57:54.119Z,9.60
2022-08-31T10:00:35.187Z,9.53
2022-08-31T10:03:18.907Z,8.70
2022-08-31T10:05:48.754Z,8.80
2022-08-31T10:08:38.256Z,8.60
2022-08-31T10:11:14.748Z,8.10
2022-08-31T10:13:49.833Z,9.97
2022-08-31T10:16:26.472Z,7.63
2022-08-31T10:19:02.178Z,7.77
2022-08-31T10:21:48.994Z,7.73
2022-08-31T10:24:28.338Z,7.00
2022-08-31T10:27:09.997Z,7.50
2022-08-31T10:29:44.057Z,10.03
2022-08-31T10:32:24.820Z,7.40
2022-08-31T10:35:06.911Z,9.03
2022-08-31T10:37:45.001Z,9.33
2022-08-31T10:40:17.786Z,8.07
2022-08-31T10:42:50.488Z,9.47
2022-08-31T10:45:22.314Z,8.57
2022-08-31T10:47:54.720Z,8.20
2022-08-31T10:50:39.250Z,9.70
2022-08-31T10:53:16.611Z,9.40
2022-08-31T10:55:56.215Z,8.43
2022-08-31T10:58:37.474Z,9.03
2022-08-31T11:01:16.421Z,9.37
2022-08-31T11:03:57.861Z,10.30
2022-08-31T11:06:34.212Z,9.20
2022-08-31T11:09:07.875Z,8.20
2022-08-31T11:11:42.443Z,9.80
2022-08-31T11:14:49.741Z,9.77
2022-08-31T11:17:45.287Z,9.40
2022-08-31T11:20:40.939Z,7.80
2022-08-31T11:23:31.473Z,10.23
2022-08-31T11:26:45.109Z,8.17
2022-08-31T11:29:25.640Z,8.97
2022-08-31T11:31:55.062Z,8.63
2022-08-31T11:34:27.020Z,12.23
2022-08-31T11:36:57.493Z,9.00
2022-08-31T11:39:47.560Z,8.83
2022-08-31T11:42:53.662Z,9.50
2022-08-31T11:45:31.190Z,10.40
2022-08-31T11:48:00.565Z,8.57
2022-08-31T11:51:05.121Z,9.67
2022-08-31T11:53:37.051Z,8.97
2022-08-31T11:56:07.156Z,9.40
2022-08-31T11:58:39.813Z,8.87
2022-08-31T12:01:33.911Z,9.63
2022-08-31T12:04:04.389Z,8.73
2022-08-31T12:07:09.193Z,9.50
2022-08-31T12:10:05.260Z,8.37
2022-08-31T12:13:03.714Z,8.27
2022-08-31T12:15:41.584Z,8.63
2022-08-31T12:18:20.151Z,8.90
2022-08-31T12:21:17.302Z,10.63
2022-08-31T12:23:57.614Z,11.77
2022-08-31T12:26:46.823Z,9.30
2022-08-31T12:29:23.686Z,7.10
2022-08-31T12:32:23.509Z,8.10
2022-08-31T12:34:59.250Z,8.70
2022-08-31T12:37:30.470Z,8.37
2022-08-31T12:40:15.401Z,8.23
2022-08-31T12:42:53.682Z,8.63
2022-08-31T12:45:47.513Z,11.90
2022-08-31T12:48:29.592Z,10.00
2022-08-31T12:51:03.388Z,10.63
2022-08-31T12:53:55.280Z,8.27
2022-08-31T12:56:30.732Z,10.00
2022-08-31T12:59:09.021Z,10.10
2022-08-31T13:01:44.636Z,9.97
2022-08-31T13:04:15.904Z,9.73
2022-08-31T13:06:45.190Z,9.60
2022-08-31T13:09:27.204Z,8.63
2022-08-31T13:11:57.748Z,9.37
2022-08-31T13:14:27.772Z,8.43
2022-08-31T13:17:06.233Z,9.70
2022-08-31T13:19:36.103Z,7.67
2022-08-31T13:22:06.685Z,10.37
2022-08-31T13:24:41.238Z,9.40
2022-08-31T13:27:17.937Z,9.03
2022-08-31T13:29:47.334Z,8.57
2022-08-31T13:32:32.259Z,8.93
2022-08-31T13:35:04.377Z,9.47
2022-08-31T13:37:40.975Z,9.60
2022-08-31T13:40:13.066Z,9.00
2022-08-31T13:42:43.643Z,8.67
2022-08-31T13:45:39.054Z,8.57
2022-08-31T13:48:14.849Z,7.47
2022-08-31T13:50:52.487Z,10.23
2022-08-31T13:53:39.592Z,7.83
2022-08-31T13:56:44.189Z,8.07
2022-08-31T13:59:23.156Z,8.00
2022-08-31T14:01:55.814Z,8.70
2022-08-31T14:04:48.481Z,8.57
2022-08-31T14:07:21.496Z,7.70
2022-08-31T14:09:53.051Z,11.30
2022-08-31T14:12:34.926Z,8.20
2022-08-31T14:15:19.698Z,8.70
2022-08-31T14:21:16.878Z,7.90
2022-08-31T14:23:36.627Z,9.27
2022-08-31T14:26:09.018Z,8.00
2022-08-31T14:28:43.813Z,8.00
2022-08-31T14:31:24.585Z,9.37
2022-08-31T14:34:08.034Z,8.47
2022-08-31T14:36:45.010Z,7.77
2022-08-31T14:39:13.161Z,8.40
2022-08-31T14:41:41.243Z,9.30
2022-08-31T14:44:09.522Z,9.17
2022-08-31T14:46:39.876Z,9.60
2022-08-31T14:49:09.527Z,8.50
2022-08-31T14:51:39.331Z,7.70
2022-08-31T14:54:09.011Z,7.03
2022-08-31T14:56:45.354Z,7.93
2022-08-31T14:59:16.206Z,8.83
2022-08-31T15:01:45.589Z,9.30
2022-08-31T15:04:15.689Z,8.13
2022-08-31T15:06:51.000Z,9.60
2022-08-31T15:09:19.071Z,6.57
2022-08-31T15:11:47.307Z,7.77
2022-08-31T15:14:15.413Z,9.13
2022-08-31T15:16:45.405Z,8.93
2022-08-31T15:19:14.579Z,8.27
2022-08-31T15:21:52.768Z,7.33
2022-08-31T15:24:27.179Z,6.57
2022-08-31T15:26:59.572Z,7.27
2022-08-31T15:29:30.241Z,7.20
2022-08-31T15:31:59.786Z,7.47
2022-08-31T15:34:31.425Z,5.30
2022-08-31T15:37:03.216Z,6.10
2022-08-31T15:39:35.533Z,5.27
2022-08-31T15:42:09.085Z,7.40
2022-08-31T15:44:37.441Z,5.20
2022-08-31T15:47:24.752Z,7.10
2022-08-31T15:49:53.228Z,6.70
2022-08-31T15:52:27.725Z,6.10
2022-08-31T15:54:57.130Z,5.80
2022-08-31T15:57:25.193Z,5.73
2022-08-31T15:59:53.254Z,6.50
2022-08-31T16:02:21.469Z,5.53
2022-08-31T16:04:51.387Z,4.80
2022-08-31T16:07:23.073Z,5.60
2022-08-31T16:09:52.493Z,5.63
2022-08-31T16:12:21.204Z,5.97
2022-08-31T16:14:51.408Z,5.70
2022-08-31T16:17:20.120Z,6.43
2022-08-31T16:19:49.020Z,6.80
2022-08-31T16:22:17.882Z,6.50
2022-08-31T16:24:48.999Z,5.20
2022-08-31T16:27:19.574Z,5.63
2022-08-31T16:29:50.921Z,6.17
2022-08-31T16:32:19.315Z,6.27
2022-08-31T16:34:47.499Z,5.80
2022-08-31T16:37:15.613Z,5.10
2022-08-31T16:39:46.967Z,6.20
2022-08-31T16:42:15.630Z,6.10
2022-08-31T16:44:47.035Z,6.33
2022-08-31T16:47:18.658Z,6.37
2022-08-31T16:49:46.243Z,5.53
2022-08-31T16:52:18.173Z,5.80
2022-08-31T16:54:48.541Z,5.60
2022-08-31T16:57:22.293Z,5.00
2022-08-31T16:59:52.196Z,4.80
2022-08-31T17:02:21.517Z,5.53
2022-08-31T17:04:53.076Z,6.20
2022-08-31T17:07:23.211Z,5.70
2022-08-31T17:09:52.455Z,6.07
2022-08-31T17:12:26.045Z,5.50
2022-08-31T17:14:56.061Z,5.40
2022-08-31T17:17:26.312Z,5.67
2022-08-31T17:19:56.141Z,6.20
2022-08-31T17:22:31.587Z,5.67
2022-08-31T17:25:03.091Z,5.17
2022-08-31T17:27:33.393Z,5.40
2022-08-31T17:30:07.238Z,5.30
2022-08-31T17:32:44.739Z,5.57
2022-08-31T17:35:18.968Z,5.10
2022-08-31T17:37:48.321Z,5.13
2022-08-31T17:40:16.964Z,6.20
2022-08-31T17:42:45.445Z,6.50
2022-08-31T17:45:15.566Z,5.87
2022-08-31T17:47:43.668Z,5.87
2022-08-31T17:50:13.942Z,6.33
2022-08-31T17:52:42.040Z,6.70
2022-08-31T17:55:10.324Z,6.77
2022-08-31T17:57:41.704Z,6.03
2022-08-31T18:00:14.424Z,7.60
2022-08-31T18:02:44.669Z,7.37
2022-08-31T18:05:16.222Z,7.13
2022-08-31T18:07:44.356Z,7.20
2022-08-31T18:10:12.703Z,7.80
2022-08-31T18:12:42.108Z,6.47
2022-08-31T18:15:12.236Z,8.83
2022-08-31T18:17:40.709Z,7.40
2022-08-31T18:20:12.497Z,7.70
2022-08-31T18:22:41.953Z,8.10
2022-08-31T18:25:11.211Z,7.50
2022-08-31T18:27:39.262Z,7.30
2022-08-31T18:30:08.968Z,8.57
2022-08-31T18:32:37.126Z,8.97
2022-08-31T18:35:14.202Z,8.13
2022-08-31T18:37:44.781Z,8.90
2022-08-31T18:40:30.940Z,8.00
2022-08-31T18:43:16.614Z,8.97
2022-08-31T18:45:49.127Z,9.40
2022-08-31T18:48:26.080Z,9.40
2022-08-31T18:50:56.913Z,9.80
2022-08-31T18:53:30.342Z,9.10
2022-08-31T18:56:05.810Z,10.33
2022-08-31T18:58:33.969Z,13.23
2022-08-31T19:01:02.293Z,11.30
2022-08-31T19:03:30.521Z,11.37
2022-08-31T19:05:58.955Z,11.83
2022-08-31T19:08:28.459Z,13.00
2022-08-31T19:10:58.215Z,11.07
2022-08-31T19:13:32.108Z,10.90
2022-08-31T19:16:10.727Z,11.37
2022-08-31T19:18:44.800Z,9.87
2022-08-31T19:21:14.863Z,10.10
2022-08-31T19:23:44.297Z,11.17
2022-08-31T19:26:18.100Z,11.57
2022-08-31T19:28:48.782Z,12.10
2022-08-31T19:31:18.837Z,13.03
2022-08-31T19:33:47.332Z,13.73
2022-08-31T19:36:16.036Z,12.27
2022-08-31T19:38:48.116Z,13.37
2022-08-31T19:41:18.271Z,13.27
2022-08-31T19:43:53.541Z,14.20
2022-08-31T19:46:26.263Z,14.77
2022-08-31T19:48:54.914Z,15.00
2022-08-31T19:51:24.581Z,15.60
2022-08-31T19:53:55.143Z,17.13
2022-08-31T19:56:25.770Z,19.07
2022-08-31T19:58:56.451Z,18.60
2022-08-31T20:01:33.586Z,17.60
2022-08-31T20:04:03.483Z,18.07
2022-08-31T20:06:32.599Z,17.67
2022-08-31T20:09:02.085Z,17.80
2022-08-31T20:11:31.560Z,17.30
2022-08-31T20:14:00.664Z,16.97
2022-08-31T20:16:33.305Z,16.87
2022-08-31T20:19:05.902Z,15.67
2022-08-31T20:21:35.612Z,19.40
2022-08-31T20:24:07.765Z,19.40
2022-08-31T20:26:47.458Z,20.00
2022-08-31T20:29:21.525Z,18.93
2022-08-31T20:31:52.685Z,17.50
2022-08-31T20:34:28.107Z,17.33
2022-08-31T20:37:01.276Z,18.20
2022-08-31T20:39:32.874Z,18.30
2022-08-31T20:42:03.301Z,21.10
2022-08-31T20:44:34.851Z,23.33
2022-08-31T20:47:23.147Z,20.47
2022-08-31T20:49:55.002Z,21.27
2022-08-31T20:52:25.133Z,19.97
2022-08-31T20:55:01.390Z,19.40
2022-08-31T20:57:31.881Z,20.70
2022-08-31T21:00:04.491Z,21.63
2022-08-31T21:02:34.990Z,21.13
2022-08-31T21:05:36.495Z,20.27
2022-08-31T21:07:57.267Z,21.43
2022-08-31T21:10:36.780Z,21.63
2022-08-31T21:13:08.707Z,21.57
2022-08-31T21:15:41.908Z,20.83
2022-08-31T21:18:10.017Z,21.80
2022-08-31T21:20:38.115Z,21.53
2022-08-31T21:23:12.622Z,21.30
2022-08-31T21:25:43.934Z,22.20
2022-08-31T21:28:15.685Z,21.57
2022-08-31T21:30:45.156Z,22.00
2022-08-31T21:33:13.216Z,20.37
2022-08-31T21:35:41.207Z,22.87
2022-08-31T21:38:13.202Z,23.77
2022-08-31T21:40:49.524Z,23.67
2022-08-31T21:43:17.681Z,24.70
2022-08-31T21:45:45.759Z,23.87
2022-08-31T21:48:13.761Z,23.30
2022-08-31T21:50:41.747Z,22.83
2022-08-31T21:53:09.714Z,24.17
2022-08-31T21:55:38.776Z,22.37
2022-08-31T21:58:08.118Z,23.90
2022-08-31T22:00:41.775Z,24.07
2022-08-31T22:03:09.977Z,21.03
2022-08-31T22:05:39.645Z,19.60
2022-08-31T22:08:07.664Z,20.07
2022-08-31T22:10:40.896Z,20.50
2022-08-31T22:13:12.372Z,20.90
2022-08-31T22:15:42.618Z,22.00
2022-08-31T22:18:58.245Z,22.50
2022-08-31T22:21:00.250Z,22.83
2022-08-31T22:23:29.137Z,20.87
2022-08-31T22:25:57.374Z,21.57
2022-08-31T22:28:27.748Z,23.47
2022-08-31T22:30:56.551Z,21.37
2022-08-31T22:33:25.074Z,21.37
2022-08-31T22:35:53.240Z,22.20
2022-08-31T22:38:21.316Z,21.77
2022-08-31T22:40:50.877Z,24.97
2022-08-31T22:43:19.128Z,25.10
2022-08-31T22:45:51.300Z,23.17
2022-08-31T22:48:19.424Z,24.77
2022-08-31T22:50:47.487Z,23.53
2022-08-31T22:53:15.796Z,24.40
2022-08-31T22:55:44.111Z,23.60
2022-08-31T22:58:12.436Z,23.50
2022-08-31T23:00:41.629Z,25.27
2022-08-31T23:03:14.052Z,29.83
2022-08-31T23:05:43.810Z,28.97
2022-08-31T23:08:12.552Z,28.90
2022-08-31T23:10:41.276Z,29.73
2022-08-31T23:13:09.260Z,27.70
2022-08-31T23:15:38.249Z,26.70
2022-08-31T23:18:07.754Z,25.37
2022-08-31T23:20:40.647Z,23.47
2022-08-31T23:23:08.598Z,24.50
2022-08-31T23:25:37.133Z,24.97
2022-08-31T23:28:05.337Z,26.20
2022-08-31T23:30:34.405Z,28.03
2022-08-31T23:33:02.827Z,24.67
2022-08-31T23:35:30.864Z,24.27
2022-08-31T23:38:01.553Z,26.10
2022-08-31T23:40:31.928Z,25.70
2022-08-31T23:43:00.230Z,26.77
2022-08-31T23:45:28.188Z,28.30
2022-08-31T23:47:57.743Z,26.50
2022-08-31T23:50:25.738Z,28.13
2022-08-31T23:52:53.720Z,27.63
2022-08-31T23:55:31.060Z,27.93
2022-08-31T23:57:59.338Z,28.83
